Time;durP1;ratioP1;P1;durP2;ratioP2;P2;SDS_P1;SDS_P2;PMS_P1;PMS_P2;Temp;Humidity;BMP_temperature;BMP_pressure;BME280_temperature;BME280_humidity;BME280_pressure;Samples;Min_cycle;Max_cycle;Signal;HPM_P1;HPM_P2
2022/04/08 00:01:36;;;;;;;6.93;2.20;;;6.60;99.90;;;;;;5120608;28;20447;-79
2022/04/08 00:04:05;;;;;;;2.50;1.00;;;6.60;99.90;;;;;;5106560;28;20529;-79
2022/04/08 00:06:33;;;;;;;5.43;1.47;;;6.60;99.90;;;;;;5122486;28;20471;-79
2022/04/08 00:09:03;;;;;;;4.07;1.30;;;6.50;99.90;;;;;;5121279;28;20453;-78
2022/04/08 00:11:31;;;;;;;5.70;1.50;;;6.50;99.90;;;;;;5103654;28;20463;-80
2022/04/08 00:14:00;;;;;;;3.83;1.60;;;6.40;99.90;;;;;;5111587;28;20440;-78
2022/04/08 00:16:28;;;;;;;5.70;1.47;;;6.40;99.90;;;;;;5110168;28;20479;-79
2022/04/08 00:18:57;;;;;;;5.43;1.83;;;6.40;99.90;;;;;;5101072;28;20510;-79
2022/04/08 00:21:25;;;;;;;5.50;1.60;;;6.30;99.90;;;;;;5117461;28;20443;-78
2022/04/08 00:23:54;;;;;;;3.63;1.67;;;6.30;99.90;;;;;;5120426;28;20439;-79
2022/04/08 00:26:24;;;;;;;5.33;1.30;;;6.30;99.90;;;;;;5108195;28;20467;-79
2022/04/08 00:28:52;;;;;;;3.53;1.40;;;6.30;99.90;;;;;;5102934;28;20437;-79
2022/04/08 00:31:20;;;;;;;5.73;1.57;;;6.30;99.90;;;;;;5102449;28;20445;-81
2022/04/08 00:33:48;;;;;;;4.63;1.40;;;6.30;99.90;;;;;;5102073;28;20487;-79
2022/04/08 00:36:17;;;;;;;11.43;2.73;;;6.30;99.90;;;;;;5103272;28;20562;-80
2022/04/08 00:38:45;;;;;;;4.13;1.50;;;6.30;99.90;;;;;;5099380;28;20489;-78
2022/04/08 00:41:14;;;;;;;6.10;1.40;;;6.30;99.90;;;;;;5101235;28;20452;-79
2022/04/08 00:43:43;;;;;;;4.93;1.40;;;6.30;99.90;;;;;;5098964;28;20448;-78
2022/04/08 00:46:12;;;;;;;9.10;1.70;;;6.20;99.90;;;;;;5098842;28;20460;-79
2022/04/08 00:48:40;;;;;;;4.03;1.30;;;6.30;99.90;;;;;;5102931;28;20808;-79
2022/04/08 00:51:09;;;;;;;6.83;1.97;;;6.30;99.90;;;;;;5101758;28;21004;-79
2022/04/08 00:53:38;;;;;;;3.53;1.33;;;6.30;99.90;;;;;;5104873;28;21051;-78
2022/04/08 00:56:07;;;;;;;6.73;2.33;;;6.30;99.90;;;;;;5108748;28;20539;-79
2022/04/08 00:58:37;;;;;;;5.40;1.73;;;6.30;99.90;;;;;;5100301;28;20861;-80
2022/04/08 01:01:06;;;;;;;4.30;1.60;;;6.30;99.90;;;;;;5100004;28;20861;-79
2022/04/08 01:03:35;;;;;;;6.27;1.30;;;6.30;99.90;;;;;;5099287;28;20482;-78
2022/04/08 01:06:03;;;;;;;3.70;1.37;;;6.30;99.90;;;;;;5099659;28;20491;-78
2022/04/08 01:08:34;;;;;;;5.20;1.30;;;6.20;99.90;;;;;;5098363;28;21033;-78
2022/04/08 01:11:03;;;;;;;4.87;1.57;;;6.30;99.90;;;;;;5098095;28;20964;-78
2022/04/08 01:13:31;;;;;;;4.30;1.67;;;6.20;99.90;;;;;;5097073;28;20465;-78
2022/04/08 01:15:59;;;;;;;6.20;1.63;;;6.20;99.90;;;;;;5102564;28;20502;-78
2022/04/08 01:18:29;;;;;;;4.73;1.53;;;6.30;99.90;;;;;;5118104;28;20447;-78
2022/04/08 01:20:57;;;;;;;5.30;2.17;;;6.20;99.90;;;;;;5099690;28;20482;-79
2022/04/08 01:23:27;;;;;;;5.23;1.90;;;6.30;99.90;;;;;;5098351;28;20476;-78
2022/04/08 01:25:57;;;;;;;4.77;1.60;;;6.20;99.90;;;;;;5110291;28;20479;-79
2022/04/08 01:28:27;;;;;;;9.30;2.43;;;6.30;99.90;;;;;;5118313;28;20512;-78
2022/04/08 01:30:58;;;;;;;4.67;1.70;;;6.30;99.90;;;;;;5113293;28;20496;-78
2022/04/08 01:33:26;;;;;;;8.23;2.13;;;6.30;99.90;;;;;;5098665;28;21030;-78
2022/04/08 01:35:54;;;;;;;8.00;1.70;;;6.20;99.90;;;;;;5099209;28;20463;-78
2022/04/08 01:38:22;;;;;;;6.33;1.70;;;6.20;99.90;;;;;;5098552;28;20460;-79
2022/04/08 01:40:51;;;;;;;5.37;1.50;;;6.20;99.90;;;;;;5101456;28;20511;-79
2022/04/08 01:43:20;;;;;;;7.50;2.00;;;6.20;99.90;;;;;;5099622;28;20452;-79
2022/04/08 01:45:48;;;;;;;4.10;1.73;;;6.20;99.90;;;;;;5098606;28;20494;-78
2022/04/08 01:48:17;;;;;;;5.03;2.43;;;6.20;99.90;;;;;;5102032;28;20502;-78
2022/04/08 01:50:46;;;;;;;5.23;1.73;;;6.20;99.90;;;;;;5096986;28;20453;-79
2022/04/08 01:53:15;;;;;;;4.73;1.87;;;6.20;99.90;;;;;;5117215;28;20469;-79
2022/04/08 01:55:44;;;;;;;7.97;1.90;;;6.20;99.90;;;;;;5109148;28;20475;-79
2022/04/08 01:58:12;;;;;;;5.67;1.47;;;6.20;99.90;;;;;;5098773;28;20467;-79
2022/04/08 02:00:42;;;;;;;6.27;1.80;;;6.20;99.90;;;;;;5100396;28;20448;-80
2022/04/08 02:03:11;;;;;;;4.90;1.97;;;6.10;99.90;;;;;;5098301;28;20436;-78
2022/04/08 02:05:39;;;;;;;4.00;1.87;;;6.10;99.90;;;;;;5097220;28;20470;-78
2022/04/08 02:08:08;;;;;;;4.83;1.73;;;6.20;99.90;;;;;;5096996;28;20444;-79
2022/04/08 02:10:36;;;;;;;5.13;1.60;;;6.10;99.90;;;;;;5110953;28;20514;-79
2022/04/08 02:13:04;;;;;;;4.73;1.50;;;6.10;99.90;;;;;;5119665;28;20468;-79
2022/04/08 02:15:34;;;;;;;5.77;1.57;;;6.10;99.90;;;;;;5117620;28;20475;-78
2022/04/08 02:18:04;;;;;;;7.50;1.83;;;6.10;99.90;;;;;;5118212;28;20542;-78
2022/04/08 02:20:33;;;;;;;3.30;1.00;;;6.10;99.90;;;;;;5116342;28;20550;-79
2022/04/08 02:23:03;;;;;;;4.00;1.10;;;6.00;99.90;;;;;;5118707;28;20449;-78
2022/04/08 02:25:32;;;;;;;3.43;0.90;;;6.00;99.90;;;;;;5115889;28;21029;-78
2022/04/08 02:28:02;;;;;;;2.93;1.07;;;5.90;99.90;;;;;;5115457;28;20451;-77
2022/04/08 02:30:30;;;;;;;2.20;1.10;;;5.80;99.90;;;;;;5115986;28;20416;-78
2022/04/08 02:33:01;;;;;;;3.30;0.97;;;5.70;99.90;;;;;;5116795;28;20447;-78
2022/04/08 02:35:32;;;;;;;2.50;0.90;;;5.60;99.90;;;;;;5107020;28;20486;-78
2022/04/08 02:38:00;;;;;;;1.67;0.90;;;5.60;99.90;;;;;;5118719;28;20561;-78
2022/04/08 02:40:28;;;;;;;2.00;0.70;;;5.50;99.90;;;;;;5107973;28;20450;-78
2022/04/08 02:42:56;;;;;;;4.13;0.70;;;5.40;99.90;;;;;;5101071;28;20452;-78
2022/04/08 02:45:24;;;;;;;2.83;1.07;;;5.40;99.90;;;;;;5100320;28;20522;-79
2022/04/08 02:47:53;;;;;;;4.50;1.17;;;5.40;99.90;;;;;;5106666;28;20508;-78
2022/04/08 02:50:21;;;;;;;3.10;1.30;;;5.30;99.90;;;;;;5119691;28;20545;-78
2022/04/08 02:52:50;;;;;;;4.47;1.00;;;5.20;99.90;;;;;;5120054;28;20443;-78
2022/04/08 02:55:19;;;;;;;3.37;1.10;;;5.20;99.90;;;;;;5120594;28;20494;-78
2022/04/08 02:57:48;;;;;;;4.40;1.13;;;5.10;99.90;;;;;;5121101;28;20451;-78
2022/04/08 03:00:17;;;;;;;4.07;1.20;;;5.10;99.90;;;;;;5121197;28;20845;-77
2022/04/08 03:02:46;;;;;;;4.10;2.03;;;5.10;99.90;;;;;;5121057;28;20447;-79
2022/04/08 03:05:15;;;;;;;3.87;1.50;;;5.10;99.90;;;;;;5109261;28;20460;-78
2022/04/08 03:07:44;;;;;;;3.33;1.20;;;5.10;99.90;;;;;;5120169;28;21011;-78
2022/04/08 03:10:14;;;;;;;4.73;1.80;;;5.00;99.90;;;;;;5120486;28;20997;-79
2022/04/08 03:12:42;;;;;;;4.07;1.50;;;5.00;99.90;;;;;;5120164;28;20447;-78
2022/04/08 03:15:11;;;;;;;3.33;1.43;;;5.00;99.90;;;;;;5121058;28;20558;-78
2022/04/08 03:17:39;;;;;;;6.60;2.00;;;5.00;99.90;;;;;;5119890;28;20786;-78
2022/04/08 03:20:08;;;;;;;2.73;1.73;;;5.00;99.90;;;;;;5119639;28;20974;-78
2022/04/08 03:22:36;;;;;;;6.50;1.70;;;4.90;99.90;;;;;;5118966;28;20443;-78
2022/04/08 03:25:06;;;;;;;3.57;1.20;;;4.90;99.90;;;;;;5117678;28;20482;-78
2022/04/08 03:27:36;;;;;;;4.47;1.70;;;4.90;99.90;;;;;;5119774;28;20486;-78
2022/04/08 03:30:05;;;;;;;4.57;1.77;;;4.90;99.90;;;;;;5119626;28;20522;-78
2022/04/08 03:32:33;;;;;;;5.40;1.40;;;4.90;99.90;;;;;;5121755;28;20463;-78
2022/04/08 03:35:02;;;;;;;3.47;1.50;;;4.90;99.90;;;;;;5119543;28;20493;-78
2022/04/08 03:37:31;;;;;;;3.60;1.20;;;4.90;99.90;;;;;;5109697;28;20459;-78
2022/04/08 03:39:59;;;;;;;4.50;1.90;;;4.80;99.90;;;;;;5100716;28;20516;-78
2022/04/08 03:42:27;;;;;;;6.87;1.50;;;4.80;99.90;;;;;;5098943;28;20482;-79
2022/04/08 03:44:57;;;;;;;4.43;1.67;;;4.80;99.90;;;;;;5117054;28;20447;-78
2022/04/08 03:47:25;;;;;;;5.27;1.77;;;4.80;99.90;;;;;;5119913;28;20538;-78
2022/04/08 03:49:53;;;;;;;6.23;2.10;;;4.80;99.90;;;;;;5108319;28;20867;-79
2022/04/08 03:52:22;;;;;;;3.73;1.80;;;4.70;99.90;;;;;;5100523;28;20444;-78
2022/04/08 03:54:50;;;;;;;9.23;1.90;;;4.70;99.90;;;;;;5100357;28;20470;-78
2022/04/08 03:57:18;;;;;;;4.83;1.67;;;4.70;99.90;;;;;;5100956;28;20456;-78
2022/04/08 03:59:47;;;;;;;5.83;2.17;;;4.70;99.90;;;;;;5099374;28;20448;-78
2022/04/08 04:02:17;;;;;;;4.00;1.90;;;4.70;99.90;;;;;;5099617;28;20538;-78
2022/04/08 04:04:45;;;;;;;5.97;2.53;;;4.70;99.90;;;;;;5099325;28;20953;-78
2022/04/08 04:07:13;;;;;;;6.83;1.90;;;4.70;99.90;;;;;;5105494;28;20463;-79
2022/04/08 04:09:41;;;;;;;7.20;2.20;;;4.70;99.90;;;;;;5119721;28;21059;-78
2022/04/08 04:12:10;;;;;;;9.50;2.23;;;4.70;99.90;;;;;;5116134;28;20451;-79
2022/04/08 04:14:38;;;;;;;5.50;2.63;;;4.70;99.90;;;;;;5120647;28;20485;-79
2022/04/08 04:17:06;;;;;;;5.67;2.07;;;4.70;99.90;;;;;;5120806;28;20964;-79
2022/04/08 04:19:36;;;;;;;4.23;1.70;;;4.70;99.90;;;;;;5119943;28;20444;-78
2022/04/08 04:22:05;;;;;;;7.30;1.70;;;4.70;99.90;;;;;;5119019;28;20481;-78
2022/04/08 04:24:33;;;;;;;7.47;2.33;;;4.70;99.90;;;;;;5120128;28;20484;-78
2022/04/08 04:27:01;;;;;;;7.30;2.20;;;4.70;99.90;;;;;;5116030;28;20505;-78
2022/04/08 04:29:29;;;;;;;9.00;2.50;;;4.70;99.90;;;;;;5098534;28;20448;-78
2022/04/08 04:31:59;;;;;;;6.67;2.10;;;4.70;99.90;;;;;;5110223;28;20994;-78
2022/04/08 04:34:27;;;;;;;4.23;2.30;;;4.70;99.90;;;;;;5120630;28;20459;-78
2022/04/08 04:36:59;;;;;;;4.50;2.27;;;4.60;99.90;;;;;;5119370;28;20501;-78
2022/04/08 04:39:28;;;;;;;6.20;2.03;;;4.60;99.90;;;;;;5118646;28;20550;-78
2022/04/08 04:41:56;;;;;;;6.47;2.27;;;4.60;99.90;;;;;;5119043;28;20447;-78
2022/04/08 04:44:26;;;;;;;7.77;2.23;;;4.60;99.90;;;;;;5116223;28;20983;-78
2022/04/08 04:46:54;;;;;;;7.80;2.13;;;4.60;99.90;;;;;;5097967;28;20503;-78
2022/04/08 04:49:22;;;;;;;6.40;2.20;;;4.60;99.90;;;;;;5097529;28;20535;-78
2022/04/08 04:51:52;;;;;;;6.73;2.00;;;4.60;99.90;;;;;;5095688;28;20444;-78
2022/04/08 04:54:22;;;;;;;4.40;1.80;;;4.60;99.90;;;;;;5120298;28;20493;-78
2022/04/08 04:56:50;;;;;;;8.63;2.07;;;4.60;99.90;;;;;;5116397;28;20483;-78
2022/04/08 04:59:18;;;;;;;3.43;1.80;;;4.60;99.90;;;;;;5098962;28;20559;-79
2022/04/08 05:01:46;;;;;;;4.63;1.77;;;4.60;99.90;;;;;;5097450;28;20488;-78
2022/04/08 05:04:15;;;;;;;4.60;2.17;;;4.60;99.90;;;;;;5097352;28;20459;-78
2022/04/08 05:06:43;;;;;;;4.60;1.87;;;4.50;99.90;;;;;;5100919;28;20528;-79
2022/04/08 05:09:12;;;;;;;3.00;1.90;;;4.60;99.90;;;;;;5098405;28;20463;-78
2022/04/08 05:11:41;;;;;;;4.90;2.10;;;4.60;99.90;;;;;;5098745;28;20443;-78
2022/04/08 05:14:10;;;;;;;3.60;1.70;;;4.50;99.90;;;;;;5097059;28;20888;-78
2022/04/08 05:16:38;;;;;;;3.60;1.80;;;4.50;99.90;;;;;;5098952;28;20487;-78
2022/04/08 05:19:06;;;;;;;2.97;1.40;;;4.50;99.90;;;;;;5100921;28;20447;-78
2022/04/08 05:21:34;;;;;;;4.77;1.73;;;4.50;99.90;;;;;;5096589;28;20535;-79
2022/04/08 05:24:03;;;;;;;4.17;1.67;;;4.50;99.90;;;;;;5100179;28;20857;-80
2022/04/08 05:26:31;;;;;;;5.40;1.40;;;4.50;99.90;;;;;;5099897;28;20456;-77
2022/04/08 05:29:00;;;;;;;5.73;1.57;;;4.50;99.90;;;;;;5100504;28;20436;-79
2022/04/08 05:31:28;;;;;;;3.00;1.17;;;4.50;99.90;;;;;;5106408;28;20455;-78
2022/04/08 05:33:57;;;;;;;6.37;1.73;;;4.50;99.90;;;;;;5118980;28;20443;-82
2022/04/08 05:36:25;;;;;;;4.50;3.00;;;4.50;99.90;;;;;;5116275;28;20840;-79
2022/04/08 05:38:53;;;;;;;2.80;1.50;;;4.50;99.90;;;;;;5099250;28;20452;-79
2022/04/08 05:41:21;;;;;;;3.17;1.90;;;4.50;99.90;;;;;;5100580;28;20456;-78
2022/04/08 05:43:49;;;;;;;3.70;1.77;;;4.50;99.90;;;;;;5096614;28;20440;-78
2022/04/08 05:46:19;;;;;;;4.33;1.80;;;4.50;99.90;;;;;;5117982;28;20485;-78
2022/04/08 05:48:47;;;;;;;4.30;1.80;;;4.50;99.90;;;;;;5120140;28;20443;-80
2022/04/08 05:51:15;;;;;;;3.83;1.80;;;4.50;99.90;;;;;;5117264;28;20451;-78
2022/04/08 05:53:58;;;;;;;4.03;1.80;;;4.60;99.90;;;;;;5118835;28;20427;-78
2022/04/08 05:56:27;;;;;;;4.70;2.63;;;4.60;99.90;;;;;;5105087;28;20514;-78
2022/04/08 05:58:55;;;;;;;3.93;2.10;;;4.60;99.90;;;;;;5096852;28;20466;-78
2022/04/08 06:01:24;;;;;;;5.03;1.80;;;4.60;99.90;;;;;;5108289;28;20458;-78
2022/04/08 06:03:53;;;;;;;2.53;1.93;;;4.60;99.90;;;;;;5117787;28;20883;-78
2022/04/08 06:06:21;;;;;;;3.93;1.77;;;4.60;99.90;;;;;;5118115;28;20534;-78
2022/04/08 06:08:49;;;;;;;3.97;2.03;;;4.60;99.90;;;;;;5118889;28;20457;-79
2022/04/08 06:11:17;;;;;;;3.30;1.87;;;4.50;99.90;;;;;;5110206;28;20539;-79
2022/04/08 06:13:45;;;;;;;4.90;1.60;;;4.60;99.90;;;;;;5108149;28;20878;-78
2022/04/08 06:16:14;;;;;;;5.40;1.70;;;4.70;99.90;;;;;;5098415;28;21000;-78
2022/04/08 06:18:43;;;;;;;3.53;1.77;;;4.80;99.90;;;;;;5097613;28;20540;-78
2022/04/08 06:21:11;;;;;;;5.50;2.10;;;5.00;99.90;;;;;;5119254;28;20455;-79
2022/04/08 06:23:40;;;;;;;3.97;2.07;;;5.20;99.90;;;;;;5119419;28;20806;-79
2022/04/08 06:26:09;;;;;;;3.03;2.00;;;5.40;99.90;;;;;;5119931;28;20459;-79
2022/04/08 06:28:37;;;;;;;5.90;1.97;;;5.50;99.90;;;;;;5119717;28;20490;-79
2022/04/08 06:31:05;;;;;;;3.40;2.33;;;5.70;99.90;;;;;;5104707;28;20446;-79
2022/04/08 06:33:33;;;;;;;4.63;2.53;;;5.80;99.90;;;;;;5097732;28;20452;-79
2022/04/08 06:36:03;;;;;;;9.33;2.20;;;5.70;99.90;;;;;;5105503;28;21019;-78
2022/04/08 06:38:31;;;;;;;4.40;2.33;;;5.80;99.90;;;;;;5118367;28;20455;-79
2022/04/08 06:41:00;;;;;;;3.00;1.87;;;5.90;99.90;;;;;;5118888;28;20516;-79
2022/04/08 06:43:28;;;;;;;5.10;1.53;;;5.90;99.90;;;;;;5117451;28;20455;-79
2022/04/08 06:45:56;;;;;;;4.37;2.53;;;5.80;99.90;;;;;;5097656;28;20559;-78
2022/04/08 06:48:25;;;;;;;4.97;2.30;;;5.70;99.90;;;;;;5096775;28;20984;-78
2022/04/08 06:50:53;;;;;;;4.30;2.00;;;5.70;99.90;;;;;;5099697;28;20455;-78
2022/04/08 06:53:23;;;;;;;4.20;1.90;;;5.60;99.90;;;;;;5118897;28;20482;-79
2022/04/08 06:55:51;;;;;;;4.40;2.00;;;5.60;99.90;;;;;;5119197;28;20509;-78
2022/04/08 06:58:20;;;;;;;3.47;2.10;;;5.60;99.90;;;;;;5103616;28;20987;-79
2022/04/08 07:00:48;;;;;;;5.47;2.37;;;5.50;99.90;;;;;;5100877;28;20462;-79
2022/04/08 07:03:16;;;;;;;8.70;2.83;;;5.50;99.90;;;;;;5099417;28;20452;-79
2022/04/08 07:05:44;;;;;;;4.60;1.90;;;5.50;99.90;;;;;;5099025;28;20487;-79
2022/04/08 07:08:13;;;;;;;4.37;1.70;;;5.50;99.90;;;;;;5098825;28;20444;-78
2022/04/08 07:10:42;;;;;;;4.23;2.17;;;5.70;99.90;;;;;;5097434;28;20456;-78
2022/04/08 07:13:10;;;;;;;4.23;1.93;;;5.90;99.90;;;;;;5110785;28;20541;-79
2022/04/08 07:15:39;;;;;;;4.43;1.90;;;6.20;99.90;;;;;;5119766;28;20493;-78
2022/04/08 07:18:07;;;;;;;4.87;2.20;;;6.40;99.90;;;;;;5116847;28;20446;-79
2022/04/08 07:20:35;;;;;;;5.10;2.13;;;6.50;99.90;;;;;;5119464;28;20525;-80
2022/04/08 07:23:05;;;;;;;3.73;1.93;;;6.60;99.90;;;;;;5119264;28;20442;-78
2022/04/08 07:25:34;;;;;;;7.30;2.63;;;6.80;99.90;;;;;;5124024;28;20466;-80
2022/04/08 07:28:04;;;;;;;3.37;1.53;;;6.80;99.90;;;;;;5123043;28;20987;-79
2022/04/08 07:30:32;;;;;;;4.60;1.50;;;6.90;99.90;;;;;;5114728;28;20483;-79
2022/04/08 07:33:01;;;;;;;5.20;2.00;;;6.90;99.90;;;;;;5122302;28;20538;-80
2022/04/08 07:35:31;;;;;;;4.20;2.00;;;6.90;99.90;;;;;;5123890;28;20459;-80
2022/04/08 07:38:00;;;;;;;4.83;1.70;;;6.90;99.90;;;;;;5124776;27;20495;-79
2022/04/08 07:40:28;;;;;;;3.80;2.37;;;6.80;99.90;;;;;;5106766;28;20482;-79
2022/04/08 07:42:57;;;;;;;3.10;1.57;;;6.80;99.90;;;;;;5101498;28;20462;-79
2022/04/08 07:45:29;;;;;;;3.93;1.87;;;6.80;99.90;;;;;;5104564;28;20477;-79
2022/04/08 07:48:00;;;;;;;3.10;2.00;;;6.80;99.90;;;;;;5124568;28;20436;-79
2022/04/08 07:50:30;;;;;;;3.07;1.90;;;6.90;99.90;;;;;;5114776;28;20462;-81
2022/04/08 07:52:58;;;;;;;3.90;1.80;;;6.80;99.90;;;;;;5104248;28;20451;-80
2022/04/08 07:55:27;;;;;;;2.80;1.53;;;6.80;99.90;;;;;;5104779;28;20513;-81
2022/04/08 07:57:56;;;;;;;2.73;1.70;;;6.90;99.90;;;;;;5104650;28;20464;-81
2022/04/08 08:00:29;;;;;;;4.93;1.97;;;7.00;99.90;;;;;;5102435;28;20490;-81
2022/04/08 08:02:57;;;;;;;5.87;1.80;;;7.00;99.90;;;;;;5103543;28;20465;-80
2022/04/08 08:05:27;;;;;;;4.20;1.80;;;7.00;99.90;;;;;;5104103;28;20464;-80
2022/04/08 08:07:57;;;;;;;2.83;1.60;;;7.20;99.90;;;;;;5102845;28;20459;-81
2022/04/08 08:10:28;;;;;;;3.70;2.20;;;7.20;99.90;;;;;;5103794;28;20522;-81
2022/04/08 08:12:57;;;;;;;7.57;3.00;;;7.20;99.90;;;;;;5103677;28;20443;-80
2022/04/08 08:15:28;;;;;;;3.40;1.93;;;7.20;99.90;;;;;;5114156;28;20503;-81
2022/04/08 08:17:57;;;;;;;4.00;1.93;;;7.10;99.90;;;;;;5124972;28;20513;-81
2022/04/08 08:20:26;;;;;;;5.80;2.53;;;7.10;99.90;;;;;;5107522;28;20616;-81
2022/04/08 08:22:54;;;;;;;4.63;1.77;;;7.10;99.90;;;;;;5103608;28;20503;-80
2022/04/08 08:25:23;;;;;;;5.33;2.17;;;7.00;99.90;;;;;;5105387;28;20495;-81
2022/04/08 08:27:54;;;;;;;4.13;1.97;;;7.10;99.90;;;;;;5115757;28;20551;-82
2022/04/08 08:30:23;;;;;;;3.87;2.80;;;7.10;99.90;;;;;;5122929;28;20451;-80
2022/04/08 08:32:53;;;;;;;7.03;2.20;;;7.10;99.90;;;;;;5123960;28;20448;-81
2022/04/08 08:35:22;;;;;;;6.83;2.23;;;7.20;99.90;;;;;;5110392;28;20471;-81
2022/04/08 08:37:54;;;;;;;4.57;2.23;;;7.40;99.90;;;;;;5101143;28;20485;-80
2022/04/08 08:40:25;;;;;;;6.00;2.20;;;7.60;99.90;;;;;;5103331;28;20858;-80
2022/04/08 08:42:53;;;;;;;3.80;1.93;;;7.70;99.90;;;;;;5101445;28;20452;-80
2022/04/08 08:45:21;;;;;;;4.63;2.20;;;7.70;99.90;;;;;;5102554;28;20895;-80
2022/04/08 08:47:52;;;;;;;3.37;2.13;;;7.70;99.90;;;;;;5100746;28;20454;-80
2022/04/08 08:50:22;;;;;;;5.20;2.33;;;7.80;99.90;;;;;;5108793;28;20457;-80
2022/04/08 08:52:51;;;;;;;4.13;2.10;;;7.80;99.90;;;;;;5121564;28;20885;-80
2022/04/08 08:55:20;;;;;;;5.87;2.17;;;7.80;99.90;;;;;;5109287;28;20477;-80
2022/04/08 08:57:49;;;;;;;3.97;2.80;;;7.80;99.90;;;;;;5122674;28;20456;-80
2022/04/08 09:00:19;;;;;;;4.80;2.67;;;7.80;99.90;;;;;;5122565;28;20450;-81
2022/04/08 09:02:49;;;;;;;4.13;2.30;;;7.90;99.90;;;;;;5121700;28;20970;-80
2022/04/08 09:05:19;;;;;;;6.40;2.50;;;7.80;99.90;;;;;;5121585;28;20473;-80
2022/04/08 09:07:56;;;;;;;6.70;2.47;;;7.80;99.90;;;;;;5119948;28;20430;-80
2022/04/08 09:10:26;;;;;;;5.63;2.20;;;7.80;99.90;;;;;;5121487;28;20450;-80
2022/04/08 09:12:56;;;;;;;7.80;3.23;;;7.80;99.90;;;;;;5120550;28;20862;-80
2022/04/08 09:15:24;;;;;;;4.17;2.70;;;7.90;99.90;;;;;;5114668;28;20481;-81
2022/04/08 09:17:53;;;;;;;5.93;2.43;;;7.80;99.90;;;;;;5110100;28;20510;-80
2022/04/08 09:20:21;;;;;;;6.60;3.07;;;7.90;99.90;;;;;;5098490;28;20446;-80
2022/04/08 09:22:58;;;;;;;4.10;2.03;;;8.00;99.90;;;;;;5099236;28;20457;-80
2022/04/08 09:25:27;;;;;;;3.03;2.50;;;8.00;99.90;;;;;;5099053;28;20459;-81
2022/04/08 09:27:58;;;;;;;6.23;2.63;;;8.00;99.90;;;;;;5102257;28;20447;-80
2022/04/08 09:30:27;;;;;;;3.37;2.50;;;8.10;99.90;;;;;;5121685;28;20823;-81
2022/04/08 09:32:55;;;;;;;5.03;2.50;;;8.10;99.90;;;;;;5121143;28;20996;-80
2022/04/08 09:35:24;;;;;;;3.97;2.60;;;8.20;99.90;;;;;;5101460;28;20464;-80
2022/04/08 09:38:01;;;;;;;4.67;2.30;;;8.40;99.90;;;;;;5121851;28;20486;-80
2022/04/08 09:40:37;;;;;;;5.50;2.87;;;8.40;99.90;;;;;;5113771;28;20462;-80
2022/04/08 09:43:06;;;;;;;6.40;2.10;;;8.50;99.90;;;;;;5122021;28;20450;-80
2022/04/08 09:45:38;;;;;;;6.10;2.43;;;8.50;99.90;;;;;;5126316;28;20459;-81
2022/04/08 09:48:08;;;;;;;3.50;2.00;;;8.60;99.90;;;;;;5128011;28;20431;-80
2022/04/08 09:50:39;;;;;;;4.03;1.70;;;8.60;99.90;;;;;;5122837;28;20456;-80
2022/04/08 09:53:12;;;;;;;5.33;1.93;;;8.60;99.90;;;;;;5106555;28;20439;-81
2022/04/08 09:55:43;;;;;;;4.40;2.10;;;8.70;99.90;;;;;;5106935;28;20464;-81
2022/04/08 09:58:14;;;;;;;4.10;1.80;;;8.70;99.90;;;;;;5106685;28;20496;-82
2022/04/08 10:00:46;;;;;;;3.10;2.03;;;8.70;99.90;;;;;;5108744;28;20420;-81
2022/04/08 10:03:15;;;;;;;4.37;2.00;;;8.80;99.90;;;;;;5107820;28;20431;-81
2022/04/08 10:05:44;;;;;;;2.70;1.80;;;8.80;99.90;;;;;;5107023;28;20515;-81
2022/04/08 10:08:15;;;;;;;5.83;2.60;;;8.90;99.90;;;;;;5106403;28;20436;-80
2022/04/08 10:10:49;;;;;;;5.13;2.07;;;8.90;99.90;;;;;;5115605;28;20470;-80
2022/04/08 10:13:32;;;;;;;3.03;1.57;;;9.00;99.90;;;;;;5125614;28;20461;-80
2022/04/08 10:16:05;;;;;;;4.00;2.07;;;9.00;99.90;;;;;;5123307;28;20557;-81
2022/04/08 10:18:35;;;;;;;3.93;2.13;;;8.90;99.90;;;;;;5123044;28;20458;-81
2022/04/08 10:21:03;;;;;;;2.67;1.77;;;8.90;99.90;;;;;;5125167;28;20453;-80
2022/04/08 10:23:38;;;;;;;4.03;2.33;;;8.90;99.90;;;;;;5122431;28;20539;-81
2022/04/08 10:26:17;;;;;;;5.83;2.00;;;9.00;99.90;;;;;;5111656;28;20554;-81
2022/04/08 10:28:45;;;;;;;2.57;1.77;;;9.10;99.90;;;;;;5101729;28;20420;-80
2022/04/08 10:31:18;;;;;;;4.03;1.93;;;9.10;99.90;;;;;;5099491;28;20448;-80
2022/04/08 10:33:58;;;;;;;4.30;2.07;;;9.20;99.90;;;;;;5099058;28;20551;-80
2022/04/08 10:36:37;;;;;;;3.23;2.20;;;9.20;99.90;;;;;;5106437;28;20514;-81
2022/04/08 10:39:15;;;;;;;5.00;2.27;;;9.20;99.90;;;;;;5099230;28;20486;-82
2022/04/08 10:41:47;;;;;;;3.00;1.70;;;9.30;99.90;;;;;;5098243;28;20465;-81
2022/04/08 10:44:16;;;;;;;3.50;2.23;;;9.30;99.90;;;;;;5100302;28;20455;-81
2022/04/08 10:46:52;;;;;;;5.00;2.10;;;9.40;99.90;;;;;;5099384;28;20481;-80
2022/04/08 10:49:20;;;;;;;4.10;2.00;;;9.50;99.90;;;;;;5099269;28;20450;-81
2022/04/08 10:51:50;;;;;;;3.00;2.20;;;9.50;99.90;;;;;;5099780;28;20452;-80
2022/04/08 10:54:21;;;;;;;2.83;2.30;;;9.40;99.90;;;;;;5100095;28;20462;-80
2022/04/08 10:56:58;;;;;;;4.33;2.60;;;9.40;99.90;;;;;;5120854;28;20452;-80
2022/04/08 10:59:28;;;;;;;3.40;2.50;;;9.40;99.90;;;;;;5122247;28;20489;-80
2022/04/08 11:02:02;;;;;;;3.97;3.57;;;9.40;99.90;;;;;;5124152;28;20435;-80
2022/04/08 11:04:31;;;;;;;2.80;1.83;;;9.50;99.90;;;;;;5114710;28;20986;-80
2022/04/08 11:07:05;;;;;;;2.30;1.43;;;9.60;99.90;;;;;;5116249;28;20455;-80
2022/04/08 11:09:35;;;;;;;2.63;2.30;;;9.60;99.90;;;;;;5122940;28;20469;-80
2022/04/08 11:12:04;;;;;;;3.40;2.60;;;9.70;99.90;;;;;;5102463;28;20424;-80
2022/04/08 11:14:33;;;;;;;3.43;2.80;;;9.70;99.90;;;;;;5111678;28;20859;-81
2022/04/08 11:17:01;;;;;;;5.17;2.50;;;9.80;99.90;;;;;;5124078;28;20542;-81
2022/04/08 11:19:31;;;;;;;4.10;2.33;;;10.00;99.90;;;;;;5123607;27;20517;-80
2022/04/08 11:21:59;;;;;;;5.07;3.03;;;10.00;99.90;;;;;;5117832;28;20443;-80
2022/04/08 11:24:32;;;;;;;3.60;2.47;;;10.00;99.90;;;;;;5112383;28;20444;-80
2022/04/08 11:27:02;;;;;;;4.63;3.40;;;10.00;99.90;;;;;;5106336;28;20459;-82
2022/04/08 11:29:30;;;;;;;3.60;2.57;;;9.90;99.90;;;;;;5122979;28;20451;-80
2022/04/08 11:32:08;;;;;;;3.90;2.53;;;9.80;99.90;;;;;;5101430;28;20446;-81
2022/04/08 11:34:36;;;;;;;3.80;2.90;;;9.60;99.90;;;;;;5108042;28;20448;-80
2022/04/08 11:37:05;;;;;;;4.57;3.50;;;9.30;99.90;;;;;;5111408;28;20463;-81
2022/04/08 11:39:33;;;;;;;4.90;3.17;;;9.10;99.90;;;;;;5102895;28;20471;-81
2022/04/08 11:42:04;;;;;;;4.13;3.40;;;8.90;99.90;;;;;;5107928;28;20446;-81
2022/04/08 11:44:33;;;;;;;2.93;2.60;;;8.80;99.90;;;;;;5120346;28;20447;-81
2022/04/08 11:47:09;;;;;;;3.10;2.60;;;8.70;99.90;;;;;;5120430;28;20496;-80
2022/04/08 11:49:37;;;;;;;3.60;2.90;;;8.60;99.90;;;;;;5112791;28;20529;-80
2022/04/08 11:52:07;;;;;;;3.70;3.20;;;8.60;99.90;;;;;;5111087;28;20494;-80
2022/04/08 11:54:37;;;;;;;4.67;3.30;;;8.50;99.90;;;;;;5112948;28;20455;-80
2022/04/08 11:57:29;;;;;;;4.80;3.03;;;8.40;99.90;;;;;;5127071;28;20450;-81
2022/04/08 11:59:58;;;;;;;3.43;2.63;;;8.30;99.90;;;;;;5125105;28;20472;-80
2022/04/08 12:02:28;;;;;;;2.93;2.40;;;8.20;99.90;;;;;;5104010;28;20523;-80
2022/04/08 12:04:57;;;;;;;3.70;1.93;;;8.20;99.90;;;;;;5107935;28;20487;-80
2022/04/08 12:07:46;;;;;;;3.10;2.07;;;8.10;99.90;;;;;;5101610;28;20447;-80
2022/04/08 12:10:14;;;;;;;4.90;3.57;;;8.10;99.90;;;;;;5105441;28;20443;-79
2022/04/08 12:12:45;;;;;;;3.70;1.90;;;8.00;99.90;;;;;;5119216;28;20454;-80
2022/04/08 12:15:15;;;;;;;2.77;2.33;;;7.90;99.90;;;;;;5124911;28;20536;-80
2022/04/08 12:17:44;;;;;;;3.63;2.53;;;7.80;99.90;;;;;;5128035;28;20518;-80
2022/04/08 12:20:14;;;;;;;4.53;2.80;;;7.70;99.90;;;;;;5125253;28;20995;-80
2022/04/08 12:22:45;;;;;;;2.50;2.30;;;7.60;99.90;;;;;;5125608;28;20447;-80
2022/04/08 12:25:15;;;;;;;3.67;3.37;;;7.50;99.90;;;;;;5119414;28;20475;-80
2022/04/08 12:27:44;;;;;;;3.00;2.70;;;7.60;99.90;;;;;;5104933;28;20470;-80
2022/04/08 12:30:34;;;;;;;3.83;2.63;;;7.60;99.90;;;;;;5105412;28;20454;-80
2022/04/08 12:33:03;;;;;;;3.50;2.70;;;7.70;99.90;;;;;;5105765;28;20485;-80
2022/04/08 12:35:31;;;;;;;4.10;2.57;;;7.80;99.90;;;;;;5117909;28;20528;-79
2022/04/08 12:37:59;;;;;;;4.17;3.00;;;7.80;99.90;;;;;;5123450;28;20454;-80
2022/04/08 12:40:28;;;;;;;3.03;2.27;;;7.90;99.90;;;;;;5115585;28;20478;-80
2022/04/08 12:42:58;;;;;;;3.27;2.40;;;8.00;99.90;;;;;;5110485;28;20488;-81
2022/04/08 12:45:26;;;;;;;5.47;2.53;;;8.00;99.90;;;;;;5121850;28;20495;-80
2022/04/08 12:47:54;;;;;;;2.90;2.00;;;8.00;99.90;;;;;;5125400;28;20446;-80
2022/04/08 12:50:23;;;;;;;2.63;1.73;;;8.10;99.90;;;;;;5123685;28;20507;-80
2022/04/08 12:52:52;;;;;;;2.97;1.97;;;8.10;99.90;;;;;;5118159;28;20444;-80
2022/04/08 12:55:20;;;;;;;4.43;1.80;;;8.10;99.90;;;;;;5107049;28;21098;-79
2022/04/08 12:57:48;;;;;;;2.80;1.53;;;8.10;99.90;;;;;;5115176;28;20804;-80
2022/04/08 13:00:25;;;;;;;4.47;2.20;;;8.10;99.90;;;;;;5098420;28;20473;-79
2022/04/08 13:02:53;;;;;;;4.10;1.50;;;8.10;99.90;;;;;;5114114;28;20454;-79
2022/04/08 13:05:22;;;;;;;2.63;1.50;;;8.10;99.90;;;;;;5119857;28;20478;-80
2022/04/08 13:07:52;;;;;;;3.00;1.80;;;8.10;99.90;;;;;;5119933;28;20434;-80
2022/04/08 13:10:21;;;;;;;2.70;1.77;;;8.20;99.90;;;;;;5120719;28;20526;-80